createdAt,value
2023-05-05T00:02:07.575Z,10.70
2023-05-05T00:04:34.646Z,11.07
2023-05-05T00:07:02.185Z,9.93
2023-05-05T00:09:29.715Z,10.20
2023-05-05T00:11:56.469Z,10.68
2023-05-05T00:14:23.528Z,11.32
2023-05-05T00:16:50.299Z,10.85
2023-05-05T00:19:17.328Z,12.07
2023-05-05T00:21:44.061Z,10.77
2023-05-05T00:24:11.479Z,11.15
2023-05-05T00:26:38.201Z,11.43
2023-05-05T00:29:05.241Z,10.65
2023-05-05T00:31:31.985Z,11.68
2023-05-05T00:33:58.994Z,11.38
2023-05-05T00:36:25.809Z,10.80
2023-05-05T00:38:52.852Z,10.82
2023-05-05T00:41:19.547Z,11.02
2023-05-05T00:43:46.561Z,11.38
2023-05-05T00:46:19.378Z,10.80
2023-05-05T00:48:46.484Z,9.45
2023-05-05T00:51:13.861Z,10.02
2023-05-05T00:53:43.071Z,10.32
2023-05-05T00:56:09.774Z,10.88
2023-05-05T00:58:36.937Z,11.25
2023-05-05T01:01:03.694Z,11.43
2023-05-05T01:03:30.815Z,11.65
2023-05-05T01:06:20.971Z,11.25
2023-05-05T01:09:02.067Z,10.25
2023-05-05T01:11:46.553Z,9.65
2023-05-05T01:14:18.378Z,10.03
2023-05-05T01:17:01.345Z,10.43
2023-05-05T01:19:49.914Z,9.73
2023-05-05T01:22:18.981Z,9.90
2023-05-05T01:25:12.745Z,9.85
2023-05-05T01:27:50.243Z,10.00
2023-05-05T01:30:23.849Z,9.55
2023-05-05T01:32:51.401Z,10.57
2023-05-05T01:35:20.337Z,10.15
2023-05-05T01:38:03.015Z,9.85
2023-05-05T01:40:31.955Z,9.90
2023-05-05T01:42:58.645Z,9.48
2023-05-05T01:45:27.194Z,10.75
2023-05-05T01:47:55.751Z,10.65
2023-05-05T01:50:22.824Z,10.07
2023-05-05T01:52:49.520Z,9.98
2023-05-05T01:55:16.511Z,10.40
2023-05-05T01:57:43.218Z,11.02
2023-05-05T02:00:11.488Z,10.48
2023-05-05T02:02:38.928Z,11.38
2023-05-05T02:05:06.336Z,10.98
2023-05-05T02:07:33.137Z,11.02
2023-05-05T02:10:01.829Z,10.50
2023-05-05T02:12:29.893Z,11.50
2023-05-05T02:14:58.741Z,10.82
2023-05-05T02:17:25.846Z,11.63
2023-05-05T02:19:52.900Z,11.23
2023-05-05T02:22:19.598Z,10.88
2023-05-05T02:24:46.646Z,12.13
2023-05-05T02:27:13.388Z,12.15
2023-05-05T02:29:52.021Z,11.02
2023-05-05T02:32:22.349Z,11.68
2023-05-05T02:34:49.753Z,10.20
2023-05-05T02:37:19.104Z,10.38
2023-05-05T02:39:58.668Z,9.45
2023-05-05T02:42:30.054Z,10.75
2023-05-05T02:44:58.714Z,10.55
2023-05-05T02:47:32.124Z,10.43
2023-05-05T02:49:59.142Z,8.90
2023-05-05T02:52:25.826Z,11.32
2023-05-05T02:54:52.800Z,9.80
2023-05-05T02:57:20.950Z,10.38
2023-05-05T02:59:51.694Z,10.80
2023-05-05T03:02:20.014Z,10.25
2023-05-05T03:04:49.283Z,9.80
2023-05-05T03:07:27.953Z,10.20
2023-05-05T03:09:59.871Z,10.00
2023-05-05T03:12:28.232Z,11.00
2023-05-05T03:14:57.008Z,11.00
2023-05-05T03:17:23.802Z,9.88
2023-05-05T03:19:50.837Z,10.63
2023-05-05T03:22:17.574Z,9.73
2023-05-05T03:24:49.718Z,9.60
2023-05-05T03:27:16.468Z,9.82
2023-05-05T03:29:43.565Z,11.02
2023-05-05T03:32:10.312Z,9.75
2023-05-05T03:34:37.861Z,10.32
2023-05-05T03:37:04.619Z,10.45
2023-05-05T03:39:31.669Z,9.68
2023-05-05T03:41:58.434Z,9.95
2023-05-05T03:44:25.479Z,9.93
2023-05-05T03:46:52.175Z,10.52
2023-05-05T03:49:19.245Z,10.70
2023-05-05T03:51:46.997Z,10.13
2023-05-05T03:54:14.127Z,9.65
2023-05-05T03:56:40.985Z,9.60
2023-05-05T03:59:08.886Z,10.23
2023-05-05T04:01:35.811Z,9.30
2023-05-05T04:04:02.836Z,9.85
2023-05-05T04:06:29.835Z,9.77
2023-05-05T04:08:57.138Z,10.98
2023-05-05T04:11:23.960Z,10.27
2023-05-05T04:13:51.025Z,10.70
2023-05-05T04:16:17.794Z,10.27
2023-05-05T04:18:44.860Z,9.02
2023-05-05T04:21:11.711Z,8.82
2023-05-05T04:23:38.770Z,9.70
2023-05-05T04:26:05.498Z,9.48
2023-05-05T04:28:32.577Z,9.52
2023-05-05T04:31:01.229Z,9.65
2023-05-05T04:33:28.416Z,9.85
2023-05-05T04:35:55.151Z,9.80
2023-05-05T04:38:22.433Z,10.85
2023-05-05T04:40:49.190Z,9.45
2023-05-05T04:43:16.192Z,9.63
2023-05-05T04:45:52.274Z,9.95
2023-05-05T04:48:20.810Z,9.32
2023-05-05T04:50:47.727Z,10.07
2023-05-05T04:53:14.743Z,9.82
2023-05-05T04:55:41.459Z,10.20
2023-05-05T04:58:08.540Z,10.40
2023-05-05T05:00:36.876Z,8.60
2023-05-05T05:03:04.654Z,9.60
2023-05-05T05:05:31.418Z,10.18
2023-05-05T05:07:58.441Z,10.27
2023-05-05T05:10:25.219Z,9.70
2023-05-05T05:12:52.256Z,11.27
2023-05-05T05:15:18.981Z,11.25
2023-05-05T05:17:46.027Z,12.07
2023-05-05T05:20:12.894Z,11.32
2023-05-05T05:22:40.993Z,10.38
2023-05-05T05:25:08.001Z,11.57
2023-05-05T05:27:35.022Z,11.07
2023-05-05T05:30:02.149Z,10.45
2023-05-05T05:32:29.542Z,11.40
2023-05-05T05:34:56.296Z,9.70
2023-05-05T05:37:23.330Z,10.32
2023-05-05T05:39:53.220Z,9.95
2023-05-05T05:42:20.231Z,9.68
2023-05-05T05:44:46.967Z,9.52
2023-05-05T05:47:14.410Z,11.07
2023-05-05T05:49:41.393Z,10.80
2023-05-05T05:52:08.471Z,9.85
2023-05-05T05:54:35.672Z,10.40
2023-05-05T05:57:02.656Z,10.30
2023-05-05T05:59:29.390Z,10.88
2023-05-05T06:01:56.670Z,10.70
2023-05-05T06:04:23.394Z,10.00
2023-05-05T06:06:50.837Z,10.55
2023-05-05T06:09:17.517Z,10.07
2023-05-05T06:11:44.521Z,10.65
2023-05-05T06:14:11.201Z,10.77
2023-05-05T06:16:38.174Z,11.13
2023-05-05T06:19:09.567Z,10.88
2023-05-05T06:21:37.019Z,11.18
2023-05-05T06:24:03.989Z,10.38
2023-05-05T06:26:31.508Z,10.18
2023-05-05T06:28:58.284Z,9.80
2023-05-05T06:31:25.801Z,9.77
2023-05-05T06:33:52.522Z,9.73
2023-05-05T06:36:19.623Z,9.80
2023-05-05T06:38:46.402Z,10.02
2023-05-05T06:41:13.432Z,9.57
2023-05-05T06:43:44.291Z,8.88
2023-05-05T06:46:11.504Z,9.15
2023-05-05T06:48:38.337Z,9.75
2023-05-05T06:51:05.401Z,9.60
2023-05-05T06:53:32.165Z,8.52
2023-05-05T06:55:59.191Z,8.52
2023-05-05T06:58:25.948Z,8.90
2023-05-05T07:00:54.171Z,8.52
2023-05-05T07:03:20.986Z,9.25
2023-05-05T07:05:48.040Z,9.13
2023-05-05T07:08:14.774Z,9.73
2023-05-05T07:10:42.209Z,7.57
2023-05-05T07:13:09.132Z,8.60
2023-05-05T07:15:36.384Z,8.40
2023-05-05T07:18:03.214Z,8.00
2023-05-05T07:20:30.289Z,8.43
2023-05-05T07:22:57.004Z,7.80
2023-05-05T07:25:24.020Z,7.78
2023-05-05T07:27:51.155Z,8.07
2023-05-05T07:30:19.142Z,7.38
2023-05-05T07:32:46.739Z,7.00
2023-05-05T07:35:13.933Z,8.38
2023-05-05T07:37:40.702Z,8.27
2023-05-05T07:40:08.736Z,7.38
2023-05-05T07:42:35.952Z,7.20
2023-05-05T07:45:03.614Z,7.50
2023-05-05T07:47:30.562Z,7.53
2023-05-05T07:49:57.874Z,6.70
2023-05-05T07:52:37.064Z,6.07
2023-05-05T07:55:11.939Z,6.75
2023-05-05T07:57:38.976Z,7.18
2023-05-05T08:00:06.777Z,6.88
2023-05-05T08:02:33.932Z,7.00
2023-05-05T08:05:01.051Z,6.18
2023-05-05T08:07:27.760Z,6.30
2023-05-05T08:09:54.763Z,6.18
2023-05-05T08:12:21.473Z,6.28
2023-05-05T08:14:48.534Z,6.05
2023-05-05T08:17:16.265Z,6.38
2023-05-05T08:19:43.259Z,5.68
2023-05-05T08:22:09.973Z,6.28
2023-05-05T08:24:36.986Z,5.78
2023-05-05T08:27:04.182Z,5.80
2023-05-05T08:29:31.183Z,5.53
2023-05-05T08:31:58.090Z,5.60
2023-05-05T08:34:25.408Z,5.97
2023-05-05T08:36:52.190Z,5.80
2023-05-05T08:39:19.173Z,5.32
2023-05-05T08:41:45.991Z,5.40
2023-05-05T08:44:13.190Z,4.93
2023-05-05T08:46:41.221Z,4.38
2023-05-05T08:49:08.950Z,5.78
2023-05-05T08:51:41.196Z,4.45
2023-05-05T08:54:10.162Z,5.28
2023-05-05T08:56:40.041Z,5.22
2023-05-05T08:59:07.055Z,5.35
2023-05-05T09:01:33.997Z,4.13
2023-05-05T09:04:01.212Z,4.03
2023-05-05T09:06:28.930Z,4.63
2023-05-05T09:08:57.613Z,4.57
2023-05-05T09:11:26.266Z,4.15
2023-05-05T09:13:53.314Z,4.53
2023-05-05T09:16:20.070Z,4.03
2023-05-05T09:18:47.139Z,4.30
2023-05-05T09:21:24.733Z,3.78
2023-05-05T09:24:09.095Z,4.20
2023-05-05T09:26:37.667Z,3.90
2023-05-05T09:29:05.024Z,3.60
2023-05-05T09:31:32.108Z,3.75
2023-05-05T09:34:01.074Z,3.80
2023-05-05T09:36:49.380Z,4.00
2023-05-05T09:39:19.853Z,4.03
2023-05-05T09:41:47.037Z,4.05
2023-05-05T09:44:17.049Z,3.53
2023-05-05T09:46:51.479Z,3.38
2023-05-05T09:49:20.515Z,3.97
2023-05-05T09:51:47.741Z,3.78
2023-05-05T09:54:28.582Z,3.60
2023-05-05T09:56:58.804Z,3.10
2023-05-05T09:59:25.845Z,3.35
2023-05-05T10:01:52.593Z,3.88
2023-05-05T10:04:37.820Z,3.13
2023-05-05T10:07:04.599Z,3.45
2023-05-05T10:09:34.245Z,3.28
2023-05-05T10:12:01.801Z,3.75
2023-05-05T10:14:28.871Z,3.25
2023-05-05T10:16:55.739Z,3.33
2023-05-05T10:19:23.693Z,3.20
2023-05-05T10:21:54.456Z,2.80
2023-05-05T10:24:34.462Z,3.45
2023-05-05T10:27:03.280Z,3.47
2023-05-05T10:29:45.886Z,2.80
2023-05-05T10:32:56.418Z,2.75
2023-05-05T10:35:24.393Z,3.10
2023-05-05T10:37:51.281Z,3.10
2023-05-05T10:40:18.360Z,2.50
2023-05-05T10:42:45.108Z,2.88
2023-05-05T10:45:12.371Z,2.63
2023-05-05T10:47:40.400Z,3.53
2023-05-05T10:50:16.365Z,2.83
2023-05-05T10:52:43.140Z,3.45
2023-05-05T10:55:24.377Z,2.50
2023-05-05T10:57:52.637Z,3.08
2023-05-05T11:00:37.938Z,2.83
2023-05-05T11:03:16.834Z,2.38
2023-05-05T11:06:07.636Z,2.72
2023-05-05T11:08:44.132Z,2.53
2023-05-05T11:11:11.785Z,2.40
2023-05-05T11:13:39.586Z,3.03
2023-05-05T11:16:45.874Z,2.53
2023-05-05T11:22:16.678Z,2.10
2023-05-05T11:24:43.441Z,2.30
2023-05-05T11:27:11.529Z,2.35
2023-05-05T11:30:10.049Z,2.25
2023-05-05T11:32:37.343Z,2.15
2023-05-05T11:35:06.178Z,2.15
2023-05-05T11:37:33.330Z,2.40
2023-05-05T11:40:02.872Z,1.83
2023-05-05T11:42:30.360Z,2.42
2023-05-05T11:44:57.189Z,1.85
2023-05-05T11:47:25.087Z,2.28
2023-05-05T11:49:51.892Z,1.98
2023-05-05T11:52:18.967Z,2.10
2023-05-05T11:54:50.182Z,2.75
2023-05-05T11:57:21.071Z,2.30
2023-05-05T11:59:54.663Z,2.28
2023-05-05T12:02:22.075Z,2.08
2023-05-05T12:04:49.329Z,2.20
2023-05-05T12:07:17.346Z,2.50
2023-05-05T12:09:45.653Z,2.35
2023-05-05T12:12:12.913Z,1.85
2023-05-05T12:14:52.655Z,2.00
2023-05-05T12:17:20.643Z,2.03
2023-05-05T12:19:48.121Z,1.60
2023-05-05T12:22:19.127Z,1.83
2023-05-05T12:24:45.973Z,1.90
2023-05-05T12:27:13.028Z,2.15
2023-05-05T12:29:39.763Z,2.20
2023-05-05T12:32:06.784Z,2.00
2023-05-05T12:34:33.694Z,2.00
2023-05-05T12:37:00.997Z,1.75
2023-05-05T12:39:36.980Z,1.67
2023-05-05T12:42:04.797Z,1.70
2023-05-05T12:44:38.416Z,1.55
2023-05-05T12:47:05.679Z,1.73
2023-05-05T12:49:35.339Z,1.45
2023-05-05T12:52:02.364Z,1.85
2023-05-05T12:54:29.764Z,2.05
2023-05-05T12:56:59.743Z,1.90
2023-05-05T12:59:27.539Z,1.70
2023-05-05T13:01:56.220Z,1.77
2023-05-05T13:04:24.186Z,1.35
2023-05-05T13:07:11.676Z,1.50
2023-05-05T13:09:38.515Z,1.85
2023-05-05T13:12:07.197Z,1.80
2023-05-05T13:14:34.522Z,1.83
2023-05-05T13:17:01.684Z,1.90
2023-05-05T13:19:28.658Z,1.52
2023-05-05T13:21:56.412Z,1.35
2023-05-05T13:24:31.574Z,1.60
2023-05-05T13:27:03.125Z,1.52
2023-05-05T13:29:31.527Z,1.88
2023-05-05T13:31:58.974Z,1.13
2023-05-05T13:34:25.940Z,1.50
2023-05-05T13:36:53.051Z,1.80
2023-05-05T13:39:19.970Z,1.42
2023-05-05T13:41:47.055Z,1.70
2023-05-05T13:44:14.409Z,1.70
2023-05-05T13:46:42.499Z,1.38
2023-05-05T13:49:09.371Z,1.60
2023-05-05T13:51:37.027Z,1.80
2023-05-05T13:54:04.052Z,1.90
2023-05-05T13:56:31.166Z,1.65
2023-05-05T13:58:58.372Z,1.52
2023-05-05T14:01:25.904Z,1.80
2023-05-05T14:03:53.076Z,1.73
2023-05-05T14:06:21.067Z,1.63
2023-05-05T14:08:47.963Z,2.13
2023-05-05T14:11:17.143Z,2.03
2023-05-05T14:13:44.780Z,1.63
2023-05-05T14:16:12.131Z,1.37
2023-05-05T14:18:38.861Z,1.52
2023-05-05T14:21:05.919Z,1.42
2023-05-05T14:23:32.646Z,1.80
2023-05-05T14:25:59.682Z,1.60
2023-05-05T14:28:26.496Z,1.58
2023-05-05T14:30:53.541Z,1.67
2023-05-05T14:33:20.319Z,1.73
2023-05-05T14:35:47.438Z,1.50
2023-05-05T14:38:14.204Z,1.77
2023-05-05T14:40:41.622Z,1.40
2023-05-05T14:43:08.324Z,1.60
2023-05-05T14:45:35.501Z,1.50
2023-05-05T14:48:02.762Z,2.08
2023-05-05T14:50:30.051Z,1.95
2023-05-05T14:52:56.796Z,1.52
2023-05-05T14:55:25.054Z,1.60
2023-05-05T14:57:52.061Z,1.30
2023-05-05T15:00:19.318Z,1.42
2023-05-05T15:02:48.057Z,1.58
2023-05-05T15:05:15.570Z,1.55
2023-05-05T15:07:42.375Z,1.50
2023-05-05T15:10:09.910Z,1.50
2023-05-05T15:12:36.693Z,1.50
2023-05-05T15:15:03.956Z,1.58
2023-05-05T15:17:31.842Z,1.58
2023-05-05T15:19:58.939Z,1.60
2023-05-05T15:22:26.077Z,1.17
2023-05-05T15:24:53.261Z,1.40
2023-05-05T15:27:20.149Z,1.30
2023-05-05T15:29:47.216Z,1.50
2023-05-05T15:32:14.268Z,1.63
2023-05-05T15:34:42.128Z,2.00
2023-05-05T15:37:08.839Z,1.38
2023-05-05T15:39:35.910Z,1.27
2023-05-05T15:42:05.668Z,1.35
2023-05-05T15:44:32.731Z,1.30
2023-05-05T15:46:59.524Z,1.58
2023-05-05T15:49:26.572Z,1.45
2023-05-05T15:51:53.280Z,1.30
2023-05-05T15:54:20.384Z,1.35
2023-05-05T15:56:47.792Z,1.30
2023-05-05T15:59:14.821Z,1.33
2023-05-05T16:01:41.553Z,1.45
2023-05-05T16:04:08.685Z,1.23
2023-05-05T16:06:35.864Z,2.00
2023-05-05T16:09:03.861Z,2.10
2023-05-05T16:11:30.890Z,1.75
2023-05-05T16:13:57.883Z,1.77
2023-05-05T16:16:24.659Z,1.40
2023-05-05T16:18:51.968Z,2.65
2023-05-05T16:21:18.747Z,2.67
2023-05-05T16:23:46.557Z,2.60
2023-05-05T16:26:13.356Z,2.13
2023-05-05T16:28:40.443Z,2.20
2023-05-05T16:31:09.535Z,2.33
2023-05-05T16:33:40.761Z,1.95
2023-05-05T16:36:12.343Z,1.60
2023-05-05T16:38:40.156Z,2.05
2023-05-05T16:41:07.247Z,1.88
2023-05-05T16:43:34.874Z,1.55
2023-05-05T16:46:01.875Z,1.70
2023-05-05T16:48:29.188Z,2.33
2023-05-05T16:50:57.687Z,2.20
2023-05-05T16:53:25.101Z,2.65
2023-05-05T16:55:52.655Z,1.85
2023-05-05T16:58:23.179Z,2.38
2023-05-05T17:00:50.920Z,1.40
2023-05-05T17:03:18.697Z,2.25
2023-05-05T17:05:50.184Z,1.95
2023-05-05T17:08:17.635Z,1.77
2023-05-05T17:10:44.933Z,2.13
2023-05-05T17:13:12.665Z,2.10
2023-05-05T17:15:39.383Z,2.13
2023-05-05T17:18:06.793Z,2.25
2023-05-05T17:20:33.906Z,2.60
2023-05-05T17:23:02.201Z,2.60
2023-05-05T17:25:28.960Z,1.98
2023-05-05T17:27:56.248Z,2.58
2023-05-05T17:30:23.159Z,1.75
2023-05-05T17:32:50.446Z,2.03
2023-05-05T17:35:17.321Z,1.77
2023-05-05T17:37:44.511Z,2.30
2023-05-05T17:40:11.444Z,2.10
2023-05-05T17:42:40.597Z,2.50
2023-05-05T17:45:08.579Z,2.22
2023-05-05T17:47:36.615Z,1.92
2023-05-05T17:50:03.811Z,2.10
2023-05-05T17:52:30.987Z,2.30
2023-05-05T17:54:57.866Z,3.08
2023-05-05T17:57:24.955Z,2.47
2023-05-05T17:59:53.586Z,2.70
2023-05-05T18:02:21.067Z,2.45
2023-05-05T18:04:47.920Z,2.75
2023-05-05T18:07:16.759Z,2.55
2023-05-05T18:09:43.732Z,2.60
2023-05-05T18:12:10.885Z,2.92
2023-05-05T18:14:37.897Z,2.70
2023-05-05T18:17:05.143Z,3.00
2023-05-05T18:19:32.077Z,3.13
2023-05-05T18:21:59.256Z,2.90
2023-05-05T18:24:26.197Z,2.85
2023-05-05T18:26:53.378Z,2.42
2023-05-05T18:29:21.827Z,2.78
2023-05-05T18:31:52.014Z,3.00
2023-05-05T18:34:19.366Z,2.80
2023-05-05T18:36:47.074Z,3.22
2023-05-05T18:39:14.625Z,3.05
2023-05-05T18:41:41.860Z,2.58
2023-05-05T18:44:08.729Z,3.42
2023-05-05T18:46:35.951Z,3.10
2023-05-05T18:49:03.575Z,2.78
2023-05-05T18:51:30.856Z,2.88
2023-05-05T18:53:58.932Z,3.30
2023-05-05T18:56:27.468Z,2.80
2023-05-05T18:58:54.422Z,3.13
2023-05-05T19:01:21.680Z,3.08
2023-05-05T19:03:48.851Z,3.35
2023-05-05T19:06:16.409Z,3.63
2023-05-05T19:08:44.039Z,2.97
2023-05-05T19:11:12.597Z,3.22
2023-05-05T19:13:44.028Z,3.75
2023-05-05T19:16:11.731Z,3.70
2023-05-05T19:18:39.158Z,3.95
2023-05-05T19:21:06.696Z,3.40
2023-05-05T19:23:34.665Z,3.38
2023-05-05T19:26:04.343Z,3.22
2023-05-05T19:28:32.117Z,3.22
2023-05-05T19:31:01.554Z,3.75
2023-05-05T19:33:28.400Z,3.75
2023-05-05T19:35:55.743Z,4.05
2023-05-05T19:38:22.673Z,4.45
2023-05-05T19:40:50.530Z,4.13
2023-05-05T19:43:18.515Z,4.15
2023-05-05T19:45:45.922Z,3.92
2023-05-05T19:48:12.816Z,3.38
2023-05-05T19:50:40.666Z,4.22
2023-05-05T19:53:08.652Z,4.30
2023-05-05T19:55:35.858Z,4.50
2023-05-05T19:58:03.275Z,4.03
2023-05-05T20:00:31.074Z,4.47
2023-05-05T20:02:58.072Z,4.68
2023-05-05T20:05:26.347Z,3.85
2023-05-05T20:07:53.275Z,4.25
2023-05-05T20:10:22.000Z,4.60
2023-05-05T20:12:50.220Z,4.47
2023-05-05T20:15:20.724Z,4.55
2023-05-05T20:17:49.092Z,4.82
2023-05-05T20:20:18.698Z,4.60
2023-05-05T20:22:46.198Z,4.57
2023-05-05T20:25:17.957Z,4.68
2023-05-05T20:27:45.885Z,5.22
2023-05-05T20:30:13.406Z,4.82
2023-05-05T20:32:40.805Z,5.05
2023-05-05T20:35:08.769Z,5.13
2023-05-05T20:37:35.819Z,4.78
2023-05-05T20:40:04.448Z,4.80
2023-05-05T20:42:31.337Z,5.40
2023-05-05T20:45:00.553Z,5.15
2023-05-05T20:47:27.407Z,4.78
2023-05-05T20:49:56.239Z,4.95
2023-05-05T20:52:23.178Z,5.38
2023-05-05T20:54:52.449Z,4.82
2023-05-05T20:57:19.346Z,4.90
2023-05-05T20:59:46.558Z,4.95
2023-05-05T21:02:13.479Z,4.32
2023-05-05T21:04:40.817Z,4.60
2023-05-05T21:07:07.716Z,4.85
2023-05-05T21:09:35.454Z,4.10
2023-05-05T21:12:02.569Z,5.38
2023-05-05T21:14:30.544Z,4.32
2023-05-05T21:16:59.104Z,4.80
2023-05-05T21:19:26.482Z,4.55
2023-05-05T21:21:53.760Z,4.63
2023-05-05T21:24:21.155Z,4.95
2023-05-05T21:26:48.005Z,4.68
2023-05-05T21:29:15.131Z,4.53
2023-05-05T21:31:42.156Z,4.80
2023-05-05T21:34:09.254Z,4.47
2023-05-05T21:36:36.842Z,4.47
2023-05-05T21:39:04.020Z,3.80
2023-05-05T21:41:30.802Z,4.78
2023-05-05T21:43:58.127Z,4.40
2023-05-05T21:46:24.994Z,4.28
2023-05-05T21:48:52.114Z,4.63
2023-05-05T21:51:20.320Z,4.05
2023-05-05T21:53:47.427Z,4.72
2023-05-05T21:56:14.280Z,4.45
2023-05-05T21:58:41.326Z,4.05
2023-05-05T22:01:08.192Z,4.28
2023-05-05T22:03:35.895Z,4.13
2023-05-05T22:06:02.875Z,4.75
2023-05-05T22:08:30.034Z,4.25
2023-05-05T22:10:56.714Z,4.53
2023-05-05T22:13:23.921Z,4.72
2023-05-05T22:15:50.734Z,3.97
2023-05-05T22:18:17.824Z,4.32
2023-05-05T22:20:44.571Z,4.32
2023-05-05T22:23:11.802Z,4.10
2023-05-05T22:25:38.581Z,4.20
2023-05-05T22:28:05.676Z,4.53
2023-05-05T22:30:32.485Z,4.72
2023-05-05T22:32:59.604Z,4.43
2023-05-05T22:35:26.322Z,4.28
2023-05-05T22:37:53.372Z,4.28
2023-05-05T22:40:20.072Z,3.88
2023-05-05T22:42:47.122Z,4.45
2023-05-05T22:45:13.852Z,3.95
2023-05-05T22:47:40.995Z,4.60
2023-05-05T22:50:08.374Z,4.25
2023-05-05T22:52:35.511Z,4.30
2023-05-05T22:55:02.517Z,4.20
2023-05-05T22:57:29.566Z,4.68
2023-05-05T22:59:56.352Z,4.82
2023-05-05T23:02:23.903Z,4.68
2023-05-05T23:04:51.173Z,4.82
2023-05-05T23:07:18.559Z,4.10
2023-05-05T23:09:46.532Z,4.78
2023-05-05T23:12:13.631Z,5.00
2023-05-05T23:14:40.631Z,4.75
2023-05-05T23:17:07.664Z,4.45
2023-05-05T23:19:34.713Z,4.53
2023-05-05T23:22:02.059Z,4.90
2023-05-05T23:24:28.887Z,5.20
2023-05-05T23:26:58.842Z,4.30
2023-05-05T23:29:25.703Z,4.63
2023-05-05T23:31:52.740Z,5.18
2023-05-05T23:34:19.481Z,5.28
2023-05-05T23:36:46.758Z,4.78
2023-05-05T23:39:13.565Z,4.90
2023-05-05T23:41:40.573Z,5.00
2023-05-05T23:44:07.255Z,4.97
2023-05-05T23:46:34.392Z,4.70
2023-05-05T23:49:01.246Z,6.03
2023-05-05T23:51:28.294Z,5.10
2023-05-05T23:53:56.433Z,5.03
2023-05-05T23:56:24.024Z,5.15
2023-05-05T23:58:50.928Z,5.40
